createdAt,value
2022-11-26T00:00:33.899Z,6.345825
2022-11-26T00:01:43.672Z,6.325684
2022-11-26T00:02:53.469Z,6.305542
2022-11-26T00:04:02.011Z,6.305542
2022-11-26T00:05:11.713Z,6.325684
2022-11-26T00:06:19.367Z,6.325684
2022-11-26T00:07:28.104Z,6.305542
2022-11-26T00:08:37.754Z,6.325684
2022-11-26T00:09:46.454Z,6.325684
2022-11-26T00:10:56.171Z,6.305542
2022-11-26T00:12:05.822Z,6.325684
2022-11-26T00:13:15.524Z,6.345825
2022-11-26T00:14:24.236Z,6.305542
2022-11-26T00:15:31.895Z,6.345825
2022-11-26T00:16:41.636Z,6.355896
2022-11-26T00:17:50.253Z,6.345825
2022-11-26T00:18:58.930Z,6.325684
2022-11-26T00:20:08.632Z,6.305542
2022-11-26T00:21:17.361Z,6.305542
2022-11-26T00:22:27.045Z,6.295471
2022-11-26T00:23:36.825Z,6.295471
2022-11-26T00:24:45.599Z,6.265259
2022-11-26T00:25:55.311Z,6.265259
2022-11-26T00:27:04.032Z,6.255188
2022-11-26T00:28:12.682Z,6.224976
2022-11-26T00:29:22.353Z,6.204834
2022-11-26T00:30:30.116Z,6.204834
2022-11-26T00:31:39.852Z,6.194763
2022-11-26T00:32:49.475Z,6.194763
2022-11-26T00:33:57.176Z,6.164551
2022-11-26T00:35:06.848Z,6.164551
2022-11-26T00:36:15.515Z,6.144409
2022-11-26T00:37:25.218Z,6.164551
2022-11-26T00:38:34.913Z,6.124268
2022-11-26T00:39:42.604Z,6.144409
2022-11-26T00:40:52.259Z,6.124268
2022-11-26T00:42:01.942Z,6.124268
2022-11-26T00:43:09.748Z,6.144409
2022-11-26T00:44:19.295Z,6.124268
2022-11-26T00:45:27.005Z,6.124268
2022-11-26T00:46:36.652Z,6.114197
2022-11-26T00:47:46.437Z,6.094055
2022-11-26T00:48:54.107Z,6.094055
2022-11-26T00:50:02.785Z,6.094055
2022-11-26T00:51:10.468Z,6.083984
2022-11-26T00:52:19.132Z,6.094055
2022-11-26T00:53:28.808Z,6.083984
2022-11-26T00:54:38.792Z,6.083984
2022-11-26T00:55:47.216Z,6.094055
2022-11-26T00:56:56.893Z,6.073914
2022-11-26T00:58:06.584Z,6.083984
2022-11-26T00:59:16.285Z,6.083984
2022-11-26T01:00:26.085Z,6.083984
2022-11-26T01:01:35.852Z,6.083984
2022-11-26T01:02:45.564Z,6.083984
2022-11-26T01:03:54.181Z,6.083984
2022-11-26T01:05:02.874Z,6.083984
2022-11-26T01:06:12.655Z,6.073914
2022-11-26T01:07:21.378Z,6.073914
2022-11-26T01:08:31.016Z,6.053772
2022-11-26T01:09:39.677Z,6.053772
2022-11-26T01:10:49.389Z,6.073914
2022-11-26T01:11:59.081Z,6.073914
2022-11-26T01:13:07.819Z,6.073914
2022-11-26T01:14:17.488Z,6.073914
2022-11-26T01:15:27.188Z,6.073914
2022-11-26T01:16:35.003Z,6.073914
2022-11-26T01:17:44.584Z,6.043701
2022-11-26T01:18:53.326Z,6.053772
2022-11-26T01:20:01.060Z,6.043701
2022-11-26T01:21:10.736Z,6.053772
2022-11-26T01:22:18.436Z,6.053772
2022-11-26T01:23:28.169Z,6.083984
2022-11-26T01:24:38.007Z,6.083984
2022-11-26T01:25:45.639Z,6.114197
2022-11-26T01:26:55.406Z,6.094055
2022-11-26T01:28:04.079Z,6.094055
2022-11-26T01:29:13.822Z,6.124268
2022-11-26T01:30:23.588Z,6.124268
2022-11-26T01:31:31.359Z,6.144409
2022-11-26T01:32:40.940Z,6.124268
2022-11-26T01:33:50.675Z,6.124268
2022-11-26T01:34:58.369Z,6.144409
2022-11-26T01:36:08.088Z,6.144409
2022-11-26T01:37:16.799Z,6.144409
2022-11-26T01:38:24.463Z,6.124268
2022-11-26T01:39:34.162Z,6.144409
2022-11-26T01:40:41.846Z,6.114197
2022-11-26T01:41:50.558Z,6.114197
2022-11-26T01:43:00.296Z,6.114197
2022-11-26T01:44:09.001Z,6.114197
2022-11-26T01:45:18.675Z,6.114197
2022-11-26T01:46:27.364Z,6.114197
2022-11-26T01:47:35.056Z,6.094055
2022-11-26T01:48:44.721Z,6.094055
2022-11-26T01:49:52.454Z,6.094055
2022-11-26T01:51:01.107Z,6.094055
2022-11-26T01:52:10.899Z,6.114197
2022-11-26T01:53:18.588Z,6.114197
2022-11-26T01:54:28.258Z,6.124268
2022-11-26T01:55:36.921Z,6.144409
2022-11-26T01:56:45.644Z,6.144409
2022-11-26T01:57:55.331Z,6.144409
2022-11-26T01:59:03.008Z,6.144409
2022-11-26T02:00:11.677Z,6.144409
2022-11-26T02:01:21.450Z,6.144409
2022-11-26T02:02:31.159Z,6.124268
2022-11-26T02:03:40.955Z,6.144409
2022-11-26T02:04:50.654Z,6.144409
2022-11-26T02:05:59.408Z,6.124268
2022-11-26T02:07:09.146Z,6.124268
2022-11-26T02:08:17.810Z,6.124268
2022-11-26T02:09:26.521Z,6.124268
2022-11-26T02:10:36.231Z,6.114197
2022-11-26T02:11:45.067Z,6.124268
2022-11-26T02:12:53.725Z,6.144409
2022-11-26T02:14:01.409Z,6.124268
2022-11-26T02:15:11.172Z,6.144409
2022-11-26T02:16:20.976Z,6.144409
2022-11-26T02:17:28.605Z,6.114197
2022-11-26T02:18:38.296Z,6.114197
2022-11-26T02:19:46.006Z,6.094055
2022-11-26T02:20:54.693Z,6.114197
2022-11-26T02:22:04.391Z,6.094055
2022-11-26T02:23:14.094Z,6.094055
2022-11-26T02:24:23.761Z,6.094055
2022-11-26T02:25:32.455Z,6.114197
2022-11-26T02:26:41.222Z,6.094055
2022-11-26T02:27:50.910Z,6.114197
2022-11-26T02:28:59.605Z,6.094055
2022-11-26T02:30:09.329Z,6.114197
2022-11-26T02:31:19.058Z,6.114197
2022-11-26T02:32:28.738Z,6.114197
2022-11-26T02:33:38.440Z,6.114197
2022-11-26T02:34:47.102Z,6.124268
2022-11-26T02:35:54.823Z,6.114197
2022-11-26T02:37:04.495Z,6.124268
2022-11-26T02:38:13.192Z,6.144409
2022-11-26T02:39:21.863Z,6.164551
2022-11-26T02:40:31.581Z,6.144409
2022-11-26T02:41:41.270Z,6.144409
2022-11-26T02:42:51.001Z,6.144409
2022-11-26T02:43:59.718Z,6.144409
2022-11-26T02:45:08.393Z,6.114197
2022-11-26T02:46:18.169Z,6.124268
2022-11-26T02:47:25.768Z,6.124268
2022-11-26T02:48:34.453Z,6.124268
2022-11-26T02:49:44.152Z,6.114197
2022-11-26T02:50:52.813Z,6.124268
2022-11-26T02:52:02.508Z,6.114197
2022-11-26T02:53:12.153Z,6.124268
2022-11-26T02:54:21.827Z,6.124268
2022-11-26T02:55:31.662Z,6.144409
2022-11-26T02:56:40.343Z,6.124268
2022-11-26T02:57:48.996Z,6.144409
2022-11-26T02:58:58.686Z,6.144409
2022-11-26T03:00:08.372Z,6.144409
2022-11-26T03:01:18.133Z,6.144409
2022-11-26T03:02:26.755Z,6.144409
2022-11-26T03:03:36.482Z,6.144409
2022-11-26T03:04:46.155Z,6.144409
2022-11-26T03:05:53.849Z,6.144409
2022-11-26T03:07:03.648Z,6.144409
2022-11-26T03:08:13.360Z,6.124268
2022-11-26T03:09:21.035Z,6.124268
2022-11-26T03:10:30.739Z,6.144409
2022-11-26T03:11:39.404Z,6.144409
2022-11-26T03:12:47.085Z,6.144409
2022-11-26T03:13:56.763Z,6.144409
2022-11-26T03:15:05.483Z,6.124268
2022-11-26T03:16:14.182Z,6.144409
2022-11-26T03:17:23.830Z,6.124268
2022-11-26T03:18:33.779Z,6.124268
2022-11-26T03:19:43.490Z,6.144409
2022-11-26T03:20:52.580Z,6.144409
2022-11-26T03:22:00.860Z,6.164551
2022-11-26T03:23:10.548Z,6.144409
2022-11-26T03:24:19.395Z,6.164551
2022-11-26T03:25:29.056Z,6.164551
2022-11-26T03:26:38.761Z,6.164551
2022-11-26T03:27:48.514Z,6.174622
2022-11-26T03:28:58.186Z,6.164551
2022-11-26T03:30:06.896Z,6.174622
2022-11-26T03:31:16.705Z,6.164551
2022-11-26T03:32:26.389Z,6.164551
2022-11-26T03:33:35.064Z,6.164551
2022-11-26T03:34:44.716Z,6.174622
2022-11-26T03:35:54.397Z,6.194763
2022-11-26T03:37:02.187Z,6.174622
2022-11-26T03:38:11.877Z,6.144409
2022-11-26T03:39:20.605Z,6.164551
2022-11-26T03:40:28.286Z,6.144409
2022-11-26T03:41:37.966Z,6.144409
2022-11-26T03:42:46.701Z,6.164551
2022-11-26T03:43:55.417Z,6.164551
2022-11-26T03:45:05.091Z,6.144409
2022-11-26T03:46:13.791Z,6.144409
2022-11-26T03:47:23.515Z,6.144409
2022-11-26T03:48:32.238Z,6.124268
2022-11-26T03:49:40.913Z,6.114197
2022-11-26T03:50:50.620Z,6.094055
2022-11-26T03:51:58.293Z,6.094055
2022-11-26T03:53:07.020Z,6.114197
2022-11-26T03:54:16.697Z,6.094055
2022-11-26T03:55:26.366Z,6.094055
2022-11-26T03:56:36.129Z,6.083984
2022-11-26T03:57:45.819Z,6.094055
2022-11-26T03:58:55.625Z,6.073914
2022-11-26T04:00:05.303Z,6.083984
2022-11-26T04:01:13.135Z,6.053772
2022-11-26T04:02:21.658Z,6.053772
2022-11-26T04:03:31.440Z,6.043701
2022-11-26T04:04:40.397Z,6.02356
2022-11-26T04:05:49.786Z,6.043701
2022-11-26T04:06:58.499Z,6.043701
2022-11-26T04:08:07.219Z,6.043701
2022-11-26T04:09:16.920Z,6.043701
2022-11-26T04:10:26.630Z,6.013489
2022-11-26T04:11:36.312Z,6.013489
2022-11-26T04:12:45.063Z,5.993347
2022-11-26T04:13:53.712Z,5.993347
2022-11-26T04:15:03.426Z,6.013489
2022-11-26T04:16:11.149Z,6.013489
2022-11-26T04:17:20.806Z,5.993347
2022-11-26T04:18:30.500Z,6.013489
2022-11-26T04:19:38.158Z,5.993347
2022-11-26T04:20:52.724Z,6.02356
2022-11-26T04:21:57.533Z,6.013489
2022-11-26T04:23:07.192Z,6.02356
2022-11-26T04:24:16.912Z,6.013489
2022-11-26T04:25:25.685Z,6.013489
2022-11-26T04:26:35.363Z,6.013489
2022-11-26T04:27:45.152Z,6.02356
2022-11-26T04:28:53.888Z,6.02356
2022-11-26T04:30:03.608Z,6.043701
2022-11-26T04:31:12.313Z,6.043701
2022-11-26T04:32:21.976Z,6.053772
2022-11-26T04:33:31.685Z,6.053772
2022-11-26T04:34:38.572Z,6.053772
2022-11-26T04:35:48.013Z,6.053772
2022-11-26T04:36:56.707Z,6.043701
2022-11-26T04:38:04.374Z,6.043701
2022-11-26T04:39:14.061Z,6.073914
2022-11-26T04:40:22.800Z,6.053772
2022-11-26T04:41:32.495Z,6.053772
2022-11-26T04:42:42.216Z,6.073914
2022-11-26T04:43:51.981Z,6.073914
2022-11-26T04:45:01.805Z,6.073914
2022-11-26T04:46:11.478Z,6.073914
2022-11-26T04:47:21.194Z,6.073914
2022-11-26T04:48:30.978Z,6.073914
2022-11-26T04:49:39.657Z,6.073914
2022-11-26T04:50:49.356Z,6.083984
2022-11-26T04:51:59.012Z,6.094055
2022-11-26T04:53:06.683Z,6.083984
2022-11-26T04:54:16.360Z,6.083984
2022-11-26T04:55:26.025Z,6.083984
2022-11-26T04:56:34.802Z,6.073914
2022-11-26T04:57:44.508Z,6.073914
2022-11-26T04:58:53.244Z,6.073914
2022-11-26T05:00:02.895Z,6.053772
2022-11-26T05:01:12.625Z,6.053772
2022-11-26T05:02:21.388Z,6.073914
2022-11-26T05:03:31.073Z,6.083984
2022-11-26T05:04:40.018Z,6.073914
2022-11-26T05:05:47.463Z,6.053772
2022-11-26T05:06:57.132Z,6.083984
2022-11-26T05:08:05.925Z,6.073914
2022-11-26T05:09:14.598Z,6.073914
2022-11-26T05:10:24.359Z,6.073914
2022-11-26T05:11:33.017Z,6.073914
2022-11-26T05:12:42.723Z,6.073914
2022-11-26T05:13:52.411Z,6.073914
2022-11-26T05:15:01.106Z,6.083984
2022-11-26T05:16:10.852Z,6.073914
2022-11-26T05:17:19.560Z,6.073914
2022-11-26T05:18:29.157Z,6.073914
2022-11-26T05:19:39.014Z,6.073914
2022-11-26T05:20:46.749Z,6.073914
2022-11-26T05:21:56.433Z,6.073914
2022-11-26T05:23:05.195Z,6.073914
2022-11-26T05:24:12.882Z,6.073914
2022-11-26T05:25:22.580Z,6.073914
2022-11-26T05:26:30.265Z,6.083984
2022-11-26T05:27:39.947Z,6.083984
2022-11-26T05:28:49.672Z,6.083984
2022-11-26T05:29:59.339Z,6.073914
2022-11-26T05:31:09.023Z,6.083984
2022-11-26T05:32:17.745Z,6.083984
2022-11-26T05:33:25.480Z,6.073914
2022-11-26T05:34:35.189Z,6.073914
2022-11-26T05:35:42.854Z,6.073914
2022-11-26T05:36:52.571Z,6.083984
2022-11-26T05:38:02.262Z,6.053772
2022-11-26T05:39:09.973Z,6.073914
2022-11-26T05:40:19.654Z,6.073914
2022-11-26T05:41:28.359Z,6.053772
2022-11-26T05:42:36.074Z,6.053772
2022-11-26T05:43:45.777Z,6.053772
2022-11-26T05:44:54.680Z,6.053772
2022-11-26T05:46:03.367Z,6.053772
2022-11-26T05:47:13.048Z,6.043701
2022-11-26T05:48:21.786Z,6.043701
2022-11-26T05:49:31.501Z,6.043701
2022-11-26T05:50:41.185Z,6.043701
2022-11-26T05:51:51.869Z,6.013489
2022-11-26T05:53:01.623Z,6.02356
2022-11-26T05:54:10.309Z,6.013489
2022-11-26T05:55:19.978Z,6.013489
2022-11-26T05:56:29.662Z,5.993347
2022-11-26T05:57:38.442Z,5.993347
2022-11-26T05:58:48.130Z,5.983276
2022-11-26T05:59:56.887Z,5.973206
2022-11-26T06:01:05.548Z,5.973206
2022-11-26T06:02:15.453Z,5.983276
2022-11-26T06:03:23.170Z,5.993347
2022-11-26T06:04:31.688Z,5.993347
2022-11-26T06:05:41.444Z,5.993347
2022-11-26T06:06:50.113Z,5.993347
2022-11-26T06:07:59.827Z,6.02356
2022-11-26T06:09:07.701Z,6.013489
2022-11-26T06:10:17.370Z,6.02356
2022-11-26T06:11:26.054Z,6.073914
2022-11-26T06:12:34.774Z,6.083984
2022-11-26T06:13:43.530Z,6.094055
2022-11-26T06:14:51.258Z,6.114197
2022-11-26T06:15:59.929Z,6.124268
2022-11-26T06:17:10.604Z,6.124268
2022-11-26T06:18:19.265Z,6.144409
2022-11-26T06:19:28.944Z,6.144409
2022-11-26T06:20:37.659Z,6.174622
2022-11-26T06:21:46.429Z,6.194763
2022-11-26T06:22:56.141Z,6.194763
2022-11-26T06:24:02.814Z,6.204834
2022-11-26T06:25:11.481Z,6.235046
2022-11-26T06:26:21.160Z,6.255188
2022-11-26T06:27:28.827Z,6.265259
2022-11-26T06:28:38.592Z,6.265259
2022-11-26T06:29:47.394Z,6.295471
2022-11-26T06:30:56.215Z,6.305542
2022-11-26T06:32:06.031Z,6.305542
2022-11-26T06:33:13.749Z,6.305542
2022-11-26T06:34:23.532Z,6.325684
2022-11-26T06:35:33.302Z,6.345825
2022-11-26T06:36:41.976Z,6.355896
2022-11-26T06:37:51.705Z,6.386108
2022-11-26T06:39:01.470Z,6.40625
2022-11-26T06:40:10.195Z,6.40625
2022-11-26T06:41:19.889Z,6.416321
2022-11-26T06:42:28.604Z,6.436462
2022-11-26T06:43:38.293Z,6.436462
2022-11-26T06:44:47.977Z,6.436462
2022-11-26T06:45:58.756Z,6.416321
2022-11-26T06:47:08.446Z,6.416321
2022-11-26T06:48:17.321Z,6.416321
2022-11-26T06:49:25.021Z,6.416321
2022-11-26T06:50:34.694Z,6.416321
2022-11-26T06:51:43.531Z,6.436462
2022-11-26T06:52:53.243Z,6.416321
2022-11-26T06:54:02.940Z,6.416321
2022-11-26T06:55:10.588Z,6.416321
2022-11-26T06:56:20.256Z,6.40625
2022-11-26T06:57:30.000Z,6.40625
2022-11-26T06:58:38.706Z,6.386108
2022-11-26T06:59:48.402Z,6.386108
2022-11-26T07:00:56.121Z,6.40625
2022-11-26T07:02:04.894Z,6.386108
2022-11-26T07:03:14.509Z,6.386108
2022-11-26T07:04:25.144Z,6.386108
2022-11-26T07:05:34.796Z,6.355896
2022-11-26T07:06:43.478Z,6.355896
2022-11-26T07:07:52.277Z,6.355896
2022-11-26T07:09:01.877Z,6.376038
2022-11-26T07:10:09.560Z,6.376038
2022-11-26T07:11:18.253Z,6.376038
2022-11-26T07:12:28.921Z,6.376038
2022-11-26T07:13:36.592Z,6.355896
2022-11-26T07:14:46.331Z,6.376038
2022-11-26T07:15:55.064Z,6.355896
2022-11-26T07:17:02.699Z,6.355896
2022-11-26T07:18:12.375Z,6.355896
2022-11-26T07:19:21.066Z,6.376038
2022-11-26T07:20:30.821Z,6.355896
2022-11-26T07:21:40.502Z,6.376038
2022-11-26T07:22:48.167Z,6.376038
2022-11-26T07:23:57.827Z,6.376038
2022-11-26T07:25:10.959Z,6.376038
2022-11-26T07:26:15.413Z,6.40625
2022-11-26T07:27:25.063Z,6.40625
2022-11-26T07:28:33.759Z,6.416321
2022-11-26T07:29:42.443Z,6.40625
2022-11-26T07:30:52.154Z,6.386108
2022-11-26T07:31:59.904Z,6.40625
2022-11-26T07:33:09.488Z,6.40625
2022-11-26T07:34:18.148Z,6.436462
2022-11-26T07:35:26.805Z,6.416321
2022-11-26T07:36:34.480Z,6.386108
2022-11-26T07:37:43.188Z,6.386108
2022-11-26T07:38:51.861Z,6.345825
2022-11-26T07:40:01.601Z,6.325684
2022-11-26T07:41:10.258Z,6.295471
2022-11-26T07:42:19.931Z,6.305542
2022-11-26T07:43:29.612Z,6.27533
2022-11-26T07:44:38.555Z,6.265259
2022-11-26T07:45:48.032Z,6.27533
2022-11-26T07:46:56.693Z,6.265259
2022-11-26T07:48:05.368Z,6.27533
2022-11-26T07:49:16.060Z,6.255188
2022-11-26T07:50:24.779Z,6.255188
2022-11-26T07:51:33.582Z,6.255188
2022-11-26T07:52:42.262Z,6.255188
2022-11-26T07:53:49.913Z,6.255188
2022-11-26T07:54:59.637Z,6.265259
2022-11-26T07:56:09.335Z,6.265259
2022-11-26T07:57:18.008Z,6.265259
2022-11-26T07:58:27.764Z,6.265259
2022-11-26T07:59:36.561Z,6.265259
2022-11-26T08:00:48.769Z,6.204834
2022-11-26T08:01:55.933Z,6.204834
2022-11-26T08:03:04.694Z,6.194763
2022-11-26T08:04:14.318Z,6.224976
2022-11-26T08:05:24.032Z,6.204834
2022-11-26T08:06:34.773Z,6.235046
2022-11-26T08:07:43.546Z,6.235046
2022-11-26T08:08:53.242Z,6.204834
2022-11-26T08:10:02.909Z,6.235046
2022-11-26T08:11:11.699Z,6.194763
2022-11-26T08:12:21.457Z,6.174622
2022-11-26T08:13:30.201Z,6.174622
2022-11-26T08:14:39.044Z,6.224976
2022-11-26T08:15:48.571Z,6.224976
2022-11-26T08:16:57.384Z,6.235046
2022-11-26T08:18:06.138Z,6.204834
2022-11-26T08:19:15.844Z,6.224976
2022-11-26T08:20:28.796Z,6.235046
2022-11-26T08:21:34.434Z,6.255188
2022-11-26T08:22:44.082Z,6.255188
2022-11-26T08:23:52.951Z,6.235046
2022-11-26T08:25:02.628Z,6.224976
2022-11-26T08:26:33.830Z,6.235046
2022-11-26T08:27:21.967Z,6.255188
2022-11-26T08:28:31.657Z,6.265259
2022-11-26T08:29:40.502Z,6.265259
2022-11-26T08:30:50.174Z,6.27533
2022-11-26T08:31:58.886Z,6.27533
2022-11-26T08:33:07.545Z,6.305542
2022-11-26T08:34:17.283Z,6.325684
2022-11-26T08:35:38.827Z,6.355896
2022-11-26T08:36:35.714Z,6.376038
2022-11-26T08:37:45.505Z,6.40625
2022-11-26T08:38:53.190Z,6.40625
2022-11-26T08:40:02.866Z,6.416321
2022-11-26T08:41:12.597Z,6.446533
2022-11-26T08:42:20.289Z,6.456604
2022-11-26T08:43:45.263Z,6.506958
2022-11-26T08:44:40.949Z,6.476746
2022-11-26T08:45:49.441Z,6.476746
2022-11-26T08:46:59.107Z,6.446533
2022-11-26T08:48:08.770Z,6.446533
2022-11-26T08:49:18.501Z,6.476746
2022-11-26T08:50:28.192Z,6.476746
2022-11-26T08:51:36.861Z,6.456604
2022-11-26T08:52:46.651Z,6.446533
2022-11-26T08:53:55.367Z,6.456604
2022-11-26T08:55:05.068Z,6.486816
2022-11-26T08:56:14.822Z,6.506958
2022-11-26T08:57:23.524Z,6.53717
2022-11-26T08:58:33.256Z,6.617737
2022-11-26T08:59:42.976Z,6.637878
2022-11-26T09:00:50.697Z,6.668091
2022-11-26T09:02:00.436Z,6.698303
2022-11-26T09:03:10.234Z,6.78894
2022-11-26T09:04:18.809Z,6.849365
2022-11-26T09:05:28.521Z,6.889648
2022-11-26T09:06:37.256Z,6.960144
2022-11-26T09:07:49.082Z,6.990356
2022-11-26T09:08:56.783Z,7.03064
2022-11-26T09:10:04.512Z,7.060852
2022-11-26T09:11:14.269Z,7.020569
2022-11-26T09:12:22.036Z,7.060852
2022-11-26T09:13:30.768Z,7.060852
2022-11-26T09:14:40.666Z,7.070923
2022-11-26T09:15:49.295Z,7.111206
2022-11-26T09:16:59.129Z,7.151489
2022-11-26T09:18:08.971Z,7.141418
2022-11-26T09:19:16.641Z,7.151489
2022-11-26T09:20:26.319Z,7.252197
2022-11-26T09:21:34.085Z,7.433472
2022-11-26T09:22:42.777Z,7.584534
2022-11-26T09:23:52.499Z,7.685242
2022-11-26T09:25:02.226Z,7.725525
2022-11-26T09:26:12.002Z,7.796021
2022-11-26T09:27:20.789Z,7.906799
2022-11-26T09:28:30.482Z,7.997437
2022-11-26T09:29:40.218Z,8.088074
2022-11-26T09:30:47.892Z,8.088074
2022-11-26T09:33:08.402Z,7.997437
2022-11-26T09:34:16.115Z,7.977295
2022-11-26T09:35:25.751Z,7.896729
2022-11-26T09:36:35.485Z,7.866516
2022-11-26T09:37:46.081Z,7.755737
2022-11-26T09:38:52.979Z,7.715454
2022-11-26T09:40:00.698Z,7.6651
2022-11-26T09:41:10.402Z,7.634888
2022-11-26T09:42:20.119Z,7.634888
2022-11-26T09:43:29.884Z,7.604675
2022-11-26T09:44:39.914Z,7.564392
2022-11-26T09:45:49.513Z,7.574463
2022-11-26T09:47:11.377Z,7.584534
2022-11-26T09:48:07.852Z,7.604675
2022-11-26T09:49:16.621Z,7.614746
2022-11-26T09:50:26.407Z,7.584534
2022-11-26T09:51:36.081Z,7.584534
2022-11-26T09:52:44.771Z,7.584534
2022-11-26T09:53:54.478Z,7.574463
2022-11-26T09:55:04.173Z,7.584534
2022-11-26T09:56:12.860Z,7.6651
2022-11-26T09:57:22.560Z,7.695312
2022-11-26T09:58:30.280Z,7.745667
2022-11-26T09:59:39.942Z,7.78595
2022-11-26T10:00:49.698Z,7.826233
2022-11-26T10:01:58.402Z,7.866516
2022-11-26T10:03:08.039Z,7.876587
2022-11-26T10:04:16.744Z,7.876587
2022-11-26T10:05:26.469Z,7.876587
2022-11-26T10:06:35.185Z,7.816162
2022-11-26T10:07:43.943Z,7.796021
2022-11-26T10:08:53.607Z,7.876587
2022-11-26T10:10:02.289Z,7.937012
2022-11-26T10:11:10.965Z,7.947083
2022-11-26T10:12:25.729Z,7.977295
2022-11-26T10:13:30.471Z,7.977295
2022-11-26T10:14:40.451Z,7.967224
2022-11-26T10:15:49.845Z,7.997437
2022-11-26T10:16:58.568Z,8.047791
2022-11-26T10:18:08.250Z,8.098145
2022-11-26T10:19:15.974Z,8.098145
2022-11-26T10:20:25.688Z,8.128357
2022-11-26T10:21:57.427Z,8.088074
2022-11-26T10:22:46.173Z,8.057861
2022-11-26T10:23:56.789Z,7.997437
2022-11-26T10:25:05.478Z,7.967224
2022-11-26T10:26:14.146Z,7.906799
2022-11-26T10:27:23.819Z,7.967224
2022-11-26T10:28:32.517Z,8.047791
2022-11-26T10:29:41.185Z,8.118286
2022-11-26T10:30:51.107Z,8.158569
2022-11-26T10:31:58.894Z,8.239136
2022-11-26T10:33:08.486Z,8.329773
2022-11-26T10:34:16.236Z,8.370056
2022-11-26T10:35:23.977Z,8.370056
2022-11-26T10:36:33.883Z,8.380127
2022-11-26T10:37:43.560Z,8.42041
2022-11-26T10:38:53.264Z,8.450623
2022-11-26T10:40:05.899Z,8.42041
2022-11-26T10:41:11.597Z,8.42041
2022-11-26T10:42:21.445Z,8.380127
2022-11-26T10:43:31.197Z,8.370056
2022-11-26T10:44:40.459Z,8.370056
2022-11-26T10:45:49.611Z,8.380127
2022-11-26T10:46:58.364Z,8.380127
2022-11-26T10:48:08.055Z,8.42041
2022-11-26T10:49:17.846Z,8.380127
2022-11-26T10:50:46.415Z,8.299561
2022-11-26T10:51:36.156Z,8.158569
2022-11-26T10:52:44.883Z,8.088074
2022-11-26T10:53:53.572Z,8.088074
2022-11-26T10:55:03.303Z,8.047791
2022-11-26T10:56:11.952Z,8.047791
2022-11-26T10:57:21.624Z,8.007507
2022-11-26T10:58:31.295Z,8.027649
2022-11-26T10:59:39.319Z,8.007507
2022-11-26T11:00:48.765Z,7.977295
2022-11-26T11:01:58.384Z,7.947083
2022-11-26T11:03:06.040Z,7.896729
2022-11-26T11:04:15.786Z,7.896729
2022-11-26T11:05:24.452Z,7.906799
2022-11-26T11:06:32.203Z,7.926941
2022-11-26T11:07:41.970Z,7.967224
2022-11-26T11:08:50.608Z,7.947083
2022-11-26T11:10:00.316Z,7.977295
2022-11-26T11:11:10.053Z,7.967224
2022-11-26T11:12:17.734Z,7.947083
2022-11-26T11:13:27.433Z,7.947083
2022-11-26T11:14:38.337Z,7.947083
2022-11-26T11:15:44.775Z,7.896729
2022-11-26T11:16:53.517Z,7.896729
2022-11-26T11:18:02.223Z,7.906799
2022-11-26T11:19:11.889Z,7.896729
2022-11-26T11:20:20.621Z,7.896729
2022-11-26T11:21:28.263Z,7.896729
2022-11-26T11:22:37.969Z,7.866516
2022-11-26T11:24:07.531Z,7.816162
2022-11-26T11:24:56.320Z,7.816162
2022-11-26T11:26:06.148Z,7.796021
2022-11-26T11:27:13.887Z,7.765808
2022-11-26T11:28:23.568Z,7.715454
2022-11-26T11:29:32.329Z,7.715454
2022-11-26T11:30:40.030Z,7.685242
2022-11-26T11:31:49.782Z,7.725525
2022-11-26T11:32:58.415Z,7.715454
2022-11-26T11:34:07.032Z,7.725525
2022-11-26T11:35:16.701Z,7.725525
2022-11-26T11:36:25.389Z,7.745667
2022-11-26T11:37:35.073Z,7.745667
2022-11-26T11:38:44.772Z,7.725525
2022-11-26T11:39:53.650Z,7.745667
2022-11-26T11:41:03.333Z,7.755737
2022-11-26T11:42:12.015Z,7.816162
2022-11-26T11:43:20.706Z,7.846375
2022-11-26T11:44:30.452Z,7.866516
2022-11-26T11:45:39.208Z,7.906799
2022-11-26T11:46:48.815Z,7.947083
2022-11-26T11:47:57.491Z,7.977295
2022-11-26T11:49:05.196Z,7.977295
2022-11-26T11:50:14.866Z,7.997437
2022-11-26T11:51:22.619Z,7.977295
2022-11-26T11:52:32.296Z,7.977295
2022-11-26T11:53:41.965Z,7.977295
2022-11-26T11:54:49.732Z,7.977295
2022-11-26T11:56:02.369Z,7.947083
2022-11-26T11:57:09.101Z,7.977295
2022-11-26T11:58:16.791Z,7.977295
2022-11-26T11:59:26.496Z,7.977295
2022-11-26T12:00:35.124Z,7.947083
2022-11-26T12:01:44.851Z,7.967224
2022-11-26T12:02:53.518Z,7.977295
2022-11-26T12:04:02.297Z,7.947083
2022-11-26T12:05:12.975Z,7.947083
2022-11-26T12:06:21.605Z,7.947083
2022-11-26T12:07:31.507Z,7.947083
2022-11-26T12:08:41.166Z,7.997437
2022-11-26T12:09:49.849Z,7.977295
2022-11-26T12:10:59.540Z,7.977295
2022-11-26T12:12:07.235Z,7.997437
2022-11-26T12:13:15.912Z,8.007507
2022-11-26T12:14:25.601Z,7.997437
2022-11-26T12:15:34.311Z,8.047791
2022-11-26T12:16:44.084Z,8.047791
2022-11-26T12:17:51.678Z,8.047791
2022-11-26T12:19:01.372Z,8.027649
2022-11-26T12:20:11.050Z,8.047791
2022-11-26T12:21:19.755Z,7.977295
2022-11-26T12:22:29.432Z,7.947083
2022-11-26T12:23:39.139Z,7.866516
2022-11-26T12:24:46.805Z,7.796021
2022-11-26T12:25:56.556Z,7.796021
2022-11-26T12:27:05.219Z,7.78595
2022-11-26T12:28:12.913Z,7.796021
2022-11-26T12:29:23.660Z,7.78595
2022-11-26T12:30:32.374Z,7.755737
2022-11-26T12:31:41.168Z,7.816162
2022-11-26T12:32:50.888Z,7.78595
2022-11-26T12:34:02.856Z,7.796021
2022-11-26T12:35:09.330Z,7.826233
2022-11-26T12:36:18.004Z,7.846375
2022-11-26T12:37:25.721Z,7.876587
2022-11-26T12:38:35.434Z,7.926941
2022-11-26T12:39:46.043Z,7.967224
2022-11-26T12:40:54.783Z,8.007507
2022-11-26T12:42:04.457Z,8.078003
2022-11-26T12:43:12.291Z,8.098145
2022-11-26T12:44:21.951Z,8.128357
2022-11-26T12:45:30.724Z,8.158569
2022-11-26T12:46:38.370Z,8.229065
2022-11-26T12:47:48.173Z,8.269348
2022-11-26T12:48:57.847Z,8.309631
2022-11-26T12:50:06.515Z,8.339844
2022-11-26T12:51:16.251Z,8.359985
2022-11-26T12:52:24.934Z,8.42041
2022-11-26T12:53:34.629Z,8.490906
2022-11-26T12:54:44.323Z,8.601685
2022-11-26T12:55:54.033Z,8.631897
2022-11-26T12:57:03.720Z,8.631897
2022-11-26T12:58:12.431Z,8.641968
2022-11-26T12:59:22.191Z,8.641968
2022-11-26T13:00:35.867Z,8.67218
2022-11-26T13:01:41.603Z,8.692322
2022-11-26T13:02:51.350Z,8.631897
2022-11-26T13:04:21.939Z,8.601685
2022-11-26T13:05:12.553Z,8.611755
2022-11-26T13:06:22.280Z,8.601685
2022-11-26T13:07:29.973Z,8.581543
2022-11-26T13:08:38.698Z,8.551331
2022-11-26T13:09:48.409Z,8.511047
2022-11-26T13:10:56.097Z,8.460693
2022-11-26T13:12:05.829Z,8.410339
2022-11-26T13:13:15.507Z,8.339844
2022-11-26T13:14:23.216Z,8.309631
2022-11-26T13:15:32.892Z,8.279419
2022-11-26T13:16:40.670Z,8.229065
2022-11-26T13:17:49.526Z,8.178711
2022-11-26T13:19:02.730Z,8.178711
2022-11-26T13:20:08.886Z,8.158569
2022-11-26T13:21:18.600Z,8.148499
2022-11-26T13:22:28.285Z,8.148499
2022-11-26T13:23:37.030Z,8.128357
2022-11-26T13:24:46.788Z,8.118286
2022-11-26T13:25:55.527Z,8.148499
2022-11-26T13:27:04.222Z,8.158569
2022-11-26T13:28:13.966Z,8.188782
2022-11-26T13:29:21.674Z,8.239136
2022-11-26T13:30:31.409Z,8.259277
2022-11-26T13:31:40.147Z,8.299561
2022-11-26T13:32:47.808Z,8.42041
2022-11-26T13:33:57.544Z,8.42041